sensor_id;sensor_type;location;lat;lon;timestamp;P1;durP1;ratioP1;P2;durP2;ratioP2
14080;SDS011;7116;52.152;5.392;2024-01-16T00:01:50;11.03;;;4.67;;
14080;SDS011;7116;52.152;5.392;2024-01-16T00:04:18;11.38;;;3.83;;
14080;SDS011;7116;52.152;5.392;2024-01-16T00:06:43;6.40;;;2.73;;
14080;SDS011;7116;52.152;5.392;2024-01-16T00:09:08;9.27;;;4.67;;
14080;SDS011;7116;52.152;5.392;2024-01-16T00:11:44;8.10;;;3.28;;
14080;SDS011;7116;52.152;5.392;2024-01-16T00:14:09;9.40;;;4.32;;
14080;SDS011;7116;52.152;5.392;2024-01-16T00:16:47;9.67;;;3.23;;
14080;SDS011;7116;52.152;5.392;2024-01-16T00:19:15;9.25;;;3.17;;
14080;SDS011;7116;52.152;5.392;2024-01-16T00:21:43;8.70;;;2.73;;
14080;SDS011;7116;52.152;5.392;2024-01-16T00:24:12;9.13;;;2.87;;
14080;SDS011;7116;52.152;5.392;2024-01-16T00:26:37;7.63;;;2.80;;
14080;SDS011;7116;52.152;5.392;2024-01-16T00:29:04;7.20;;;4.00;;
14080;SDS011;7116;52.152;5.392;2024-01-16T00:31:29;7.20;;;3.15;;
14080;SDS011;7116;52.152;5.392;2024-01-16T00:33:54;7.55;;;4.18;;
14080;SDS011;7116;52.152;5.392;2024-01-16T00:36:19;7.38;;;3.42;;
14080;SDS011;7116;52.152;5.392;2024-01-16T00:38:45;13.10;;;4.00;;
14080;SDS011;7116;52.152;5.392;2024-01-16T00:41:11;7.70;;;3.17;;
14080;SDS011;7116;52.152;5.392;2024-01-16T00:43:37;10.60;;;4.07;;
14080;SDS011;7116;52.152;5.392;2024-01-16T00:46:02;5.73;;;2.83;;
14080;SDS011;7116;52.152;5.392;2024-01-16T00:48:27;7.20;;;3.73;;
14080;SDS011;7116;52.152;5.392;2024-01-16T00:50:52;10.03;;;3.13;;
14080;SDS011;7116;52.152;5.392;2024-01-16T00:53:20;11.80;;;3.07;;
14080;SDS011;7116;52.152;5.392;2024-01-16T00:55:45;8.00;;;2.58;;
14080;SDS011;7116;52.152;5.392;2024-01-16T00:58:11;8.60;;;3.27;;
14080;SDS011;7116;52.152;5.392;2024-01-16T01:00:36;8.30;;;3.17;;
14080;SDS011;7116;52.152;5.392;2024-01-16T01:03:02;11.25;;;3.42;;
14080;SDS011;7116;52.152;5.392;2024-01-16T01:05:28;8.60;;;3.00;;
14080;SDS011;7116;52.152;5.392;2024-01-16T01:07:54;10.63;;;3.60;;
14080;SDS011;7116;52.152;5.392;2024-01-16T01:10:20;11.53;;;3.80;;
14080;SDS011;7116;52.152;5.392;2024-01-16T01:12:45;11.83;;;4.37;;
14080;SDS011;7116;52.152;5.392;2024-01-16T01:15:10;13.60;;;4.47;;
14080;SDS011;7116;52.152;5.392;2024-01-16T01:17:35;8.43;;;3.85;;
14080;SDS011;7116;52.152;5.392;2024-01-16T01:20:01;10.03;;;4.23;;
14080;SDS011;7116;52.152;5.392;2024-01-16T01:22:26;11.20;;;3.58;;
14080;SDS011;7116;52.152;5.392;2024-01-16T01:24:51;7.60;;;3.57;;
14080;SDS011;7116;52.152;5.392;2024-01-16T01:27:17;9.60;;;3.73;;
14080;SDS011;7116;52.152;5.392;2024-01-16T01:29:42;6.50;;;3.67;;
14080;SDS011;7116;52.152;5.392;2024-01-16T01:32:07;9.77;;;3.90;;
14080;SDS011;7116;52.152;5.392;2024-01-16T01:34:32;11.40;;;4.87;;
14080;SDS011;7116;52.152;5.392;2024-01-16T01:36:57;8.60;;;3.70;;
14080;SDS011;7116;52.152;5.392;2024-01-16T01:39:23;12.37;;;4.50;;
14080;SDS011;7116;52.152;5.392;2024-01-16T01:41:48;10.27;;;3.60;;
14080;SDS011;7116;52.152;5.392;2024-01-16T01:44:13;9.63;;;3.50;;
14080;SDS011;7116;52.152;5.392;2024-01-16T01:46:41;7.57;;;3.90;;
14080;SDS011;7116;52.152;5.392;2024-01-16T01:49:06;8.13;;;3.77;;
14080;SDS011;7116;52.152;5.392;2024-01-16T01:51:31;9.07;;;3.77;;
14080;SDS011;7116;52.152;5.392;2024-01-16T01:54:00;7.05;;;3.33;;
14080;SDS011;7116;52.152;5.392;2024-01-16T01:56:26;5.90;;;2.75;;
14080;SDS011;7116;52.152;5.392;2024-01-16T01:58:55;7.65;;;3.95;;
14080;SDS011;7116;52.152;5.392;2024-01-16T02:01:21;7.30;;;3.58;;
14080;SDS011;7116;52.152;5.392;2024-01-16T02:03:47;5.67;;;2.50;;
14080;SDS011;7116;52.152;5.392;2024-01-16T02:06:14;5.65;;;2.72;;
14080;SDS011;7116;52.152;5.392;2024-01-16T02:08:43;6.00;;;3.85;;
14080;SDS011;7116;52.152;5.392;2024-01-16T02:11:09;5.43;;;2.43;;
14080;SDS011;7116;52.152;5.392;2024-01-16T02:13:36;4.32;;;3.00;;
14080;SDS011;7116;52.152;5.392;2024-01-16T02:16:01;5.97;;;2.67;;
14080;SDS011;7116;52.152;5.392;2024-01-16T02:18:28;6.88;;;2.95;;
14080;SDS011;7116;52.152;5.392;2024-01-16T02:20:53;3.37;;;2.30;;
14080;SDS011;7116;52.152;5.392;2024-01-16T02:23:26;5.60;;;2.95;;
14080;SDS011;7116;52.152;5.392;2024-01-16T02:25:52;9.43;;;2.75;;
14080;SDS011;7116;52.152;5.392;2024-01-16T02:28:18;6.80;;;3.03;;
14080;SDS011;7116;52.152;5.392;2024-01-16T02:30:43;6.30;;;2.77;;
14080;SDS011;7116;52.152;5.392;2024-01-16T02:33:08;6.07;;;2.47;;
14080;SDS011;7116;52.152;5.392;2024-01-16T02:35:33;6.73;;;2.73;;
14080;SDS011;7116;52.152;5.392;2024-01-16T02:37:59;5.23;;;2.07;;
14080;SDS011;7116;52.152;5.392;2024-01-16T02:40:25;6.57;;;2.40;;
14080;SDS011;7116;52.152;5.392;2024-01-16T02:42:50;3.83;;;2.40;;
14080;SDS011;7116;52.152;5.392;2024-01-16T02:45:16;8.60;;;3.23;;
14080;SDS011;7116;52.152;5.392;2024-01-16T02:47:41;8.63;;;3.03;;
14080;SDS011;7116;52.152;5.392;2024-01-16T02:50:06;3.17;;;1.93;;
14080;SDS011;7116;52.152;5.392;2024-01-16T02:52:34;5.78;;;2.80;;
14080;SDS011;7116;52.152;5.392;2024-01-16T02:54:59;5.28;;;2.38;;
14080;SDS011;7116;52.152;5.392;2024-01-16T02:57:25;5.53;;;2.50;;
14080;SDS011;7116;52.152;5.392;2024-01-16T02:59:50;4.37;;;2.47;;
14080;SDS011;7116;52.152;5.392;2024-01-16T03:02:15;5.15;;;2.50;;
14080;SDS011;7116;52.152;5.392;2024-01-16T03:04:41;7.20;;;3.77;;
14080;SDS011;7116;52.152;5.392;2024-01-16T03:07:06;3.57;;;2.60;;
14080;SDS011;7116;52.152;5.392;2024-01-16T03:09:31;4.30;;;2.70;;
14080;SDS011;7116;52.152;5.392;2024-01-16T03:11:56;3.57;;;2.50;;
14080;SDS011;7116;52.152;5.392;2024-01-16T03:14:23;4.53;;;2.95;;
14080;SDS011;7116;52.152;5.392;2024-01-16T03:16:48;4.63;;;2.90;;
14080;SDS011;7116;52.152;5.392;2024-01-16T03:19:13;7.13;;;2.73;;
14080;SDS011;7116;52.152;5.392;2024-01-16T03:21:38;4.33;;;2.27;;
14080;SDS011;7116;52.152;5.392;2024-01-16T03:24:04;3.83;;;3.47;;
14080;SDS011;7116;52.152;5.392;2024-01-16T03:26:29;3.10;;;2.45;;
14080;SDS011;7116;52.152;5.392;2024-01-16T03:28:54;4.43;;;4.03;;
14080;SDS011;7116;52.152;5.392;2024-01-16T03:31:19;2.70;;;2.13;;
14080;SDS011;7116;52.152;5.392;2024-01-16T03:33:46;8.15;;;3.65;;
14080;SDS011;7116;52.152;5.392;2024-01-16T03:36:11;4.90;;;2.77;;
14080;SDS011;7116;52.152;5.392;2024-01-16T03:38:39;3.75;;;3.45;;
14080;SDS011;7116;52.152;5.392;2024-01-16T03:41:04;2.97;;;2.30;;
14080;SDS011;7116;52.152;5.392;2024-01-16T03:43:32;5.75;;;3.53;;
14080;SDS011;7116;52.152;5.392;2024-01-16T03:45:57;4.83;;;2.60;;
14080;SDS011;7116;52.152;5.392;2024-01-16T03:48:22;4.73;;;2.30;;
14080;SDS011;7116;52.152;5.392;2024-01-16T03:50:48;4.50;;;2.33;;
14080;SDS011;7116;52.152;5.392;2024-01-16T03:53:13;4.40;;;2.47;;
14080;SDS011;7116;52.152;5.392;2024-01-16T03:55:38;4.07;;;2.17;;
14080;SDS011;7116;52.152;5.392;2024-01-16T03:58:04;3.40;;;2.20;;
14080;SDS011;7116;52.152;5.392;2024-01-16T04:00:29;6.37;;;2.80;;
14080;SDS011;7116;52.152;5.392;2024-01-16T04:02:54;5.17;;;3.13;;
14080;SDS011;7116;52.152;5.392;2024-01-16T04:05:19;5.57;;;2.57;;
14080;SDS011;7116;52.152;5.392;2024-01-16T04:07:45;3.13;;;2.63;;
14080;SDS011;7116;52.152;5.392;2024-01-16T04:10:10;6.93;;;2.57;;
14080;SDS011;7116;52.152;5.392;2024-01-16T04:12:35;2.50;;;2.30;;
14080;SDS011;7116;52.152;5.392;2024-01-16T04:15:00;5.67;;;2.67;;
14080;SDS011;7116;52.152;5.392;2024-01-16T04:17:26;5.33;;;2.87;;
14080;SDS011;7116;52.152;5.392;2024-01-16T04:19:51;3.80;;;2.20;;
14080;SDS011;7116;52.152;5.392;2024-01-16T04:22:16;4.03;;;2.90;;
14080;SDS011;7116;52.152;5.392;2024-01-16T04:24:41;5.83;;;2.70;;
14080;SDS011;7116;52.152;5.392;2024-01-16T04:27:07;2.80;;;2.37;;
14080;SDS011;7116;52.152;5.392;2024-01-16T04:29:32;4.53;;;2.67;;
14080;SDS011;7116;52.152;5.392;2024-01-16T04:31:57;11.90;;;2.50;;
14080;SDS011;7116;52.152;5.392;2024-01-16T04:34:23;4.28;;;2.58;;
14080;SDS011;7116;52.152;5.392;2024-01-16T04:36:48;4.20;;;2.40;;
14080;SDS011;7116;52.152;5.392;2024-01-16T04:39:13;5.70;;;2.77;;
14080;SDS011;7116;52.152;5.392;2024-01-16T04:41:38;3.27;;;2.37;;
14080;SDS011;7116;52.152;5.392;2024-01-16T04:44:04;4.20;;;2.97;;
14080;SDS011;7116;52.152;5.392;2024-01-16T04:46:29;4.07;;;2.83;;
14080;SDS011;7116;52.152;5.392;2024-01-16T04:48:56;5.80;;;3.07;;
14080;SDS011;7116;52.152;5.392;2024-01-16T04:51:21;4.35;;;2.30;;
14080;SDS011;7116;52.152;5.392;2024-01-16T04:53:47;4.57;;;3.73;;
14080;SDS011;7116;52.152;5.392;2024-01-16T04:56:12;5.87;;;2.87;;
14080;SDS011;7116;52.152;5.392;2024-01-16T04:58:37;7.47;;;4.43;;
14080;SDS011;7116;52.152;5.392;2024-01-16T05:01:02;5.87;;;3.03;;
14080;SDS011;7116;52.152;5.392;2024-01-16T05:03:27;6.10;;;4.10;;
14080;SDS011;7116;52.152;5.392;2024-01-16T05:05:53;6.90;;;2.30;;
14080;SDS011;7116;52.152;5.392;2024-01-16T05:08:18;6.00;;;2.90;;
14080;SDS011;7116;52.152;5.392;2024-01-16T05:10:43;3.90;;;3.10;;
14080;SDS011;7116;52.152;5.392;2024-01-16T05:13:08;6.40;;;2.50;;
14080;SDS011;7116;52.152;5.392;2024-01-16T05:15:36;8.85;;;3.08;;
14080;SDS011;7116;52.152;5.392;2024-01-16T05:18:01;7.60;;;2.70;;
14080;SDS011;7116;52.152;5.392;2024-01-16T05:20:28;5.77;;;2.57;;
14080;SDS011;7116;52.152;5.392;2024-01-16T05:22:54;5.65;;;2.65;;
14080;SDS011;7116;52.152;5.392;2024-01-16T05:25:19;4.83;;;2.73;;
14080;SDS011;7116;52.152;5.392;2024-01-16T05:27:45;4.00;;;2.50;;
14080;SDS011;7116;52.152;5.392;2024-01-16T05:30:11;3.83;;;2.40;;
14080;SDS011;7116;52.152;5.392;2024-01-16T05:32:36;13.88;;;2.70;;
14080;SDS011;7116;52.152;5.392;2024-01-16T05:35:02;4.00;;;3.00;;
14080;SDS011;7116;52.152;5.392;2024-01-16T05:37:27;5.37;;;3.37;;
14080;SDS011;7116;52.152;5.392;2024-01-16T05:39:54;8.00;;;2.97;;
14080;SDS011;7116;52.152;5.392;2024-01-16T05:42:19;5.27;;;3.20;;
14080;SDS011;7116;52.152;5.392;2024-01-16T05:44:44;5.93;;;3.07;;
14080;SDS011;7116;52.152;5.392;2024-01-16T05:47:10;6.63;;;3.50;;
14080;SDS011;7116;52.152;5.392;2024-01-16T05:49:35;5.60;;;3.10;;
14080;SDS011;7116;52.152;5.392;2024-01-16T05:52:00;6.27;;;2.97;;
14080;SDS011;7116;52.152;5.392;2024-01-16T05:54:27;4.93;;;2.83;;
14080;SDS011;7116;52.152;5.392;2024-01-16T05:56:52;5.80;;;2.97;;
14080;SDS011;7116;52.152;5.392;2024-01-16T05:59:17;4.37;;;3.27;;
14080;SDS011;7116;52.152;5.392;2024-01-16T06:01:43;3.60;;;3.30;;
14080;SDS011;7116;52.152;5.392;2024-01-16T06:04:08;6.80;;;3.07;;
14080;SDS011;7116;52.152;5.392;2024-01-16T06:06:33;4.77;;;2.90;;
14080;SDS011;7116;52.152;5.392;2024-01-16T06:08:58;6.97;;;5.20;;
14080;SDS011;7116;52.152;5.392;2024-01-16T06:11:30;7.78;;;3.95;;
14080;SDS011;7116;52.152;5.392;2024-01-16T06:13:55;8.65;;;3.95;;
14080;SDS011;7116;52.152;5.392;2024-01-16T06:16:20;7.63;;;3.00;;
14080;SDS011;7116;52.152;5.392;2024-01-16T06:18:45;8.90;;;4.37;;
14080;SDS011;7116;52.152;5.392;2024-01-16T06:21:11;7.73;;;3.43;;
14080;SDS011;7116;52.152;5.392;2024-01-16T06:23:38;9.18;;;5.20;;
14080;SDS011;7116;52.152;5.392;2024-01-16T06:26:04;6.70;;;3.07;;
14080;SDS011;7116;52.152;5.392;2024-01-16T06:28:31;5.30;;;3.93;;
14080;SDS011;7116;52.152;5.392;2024-01-16T06:30:57;3.92;;;2.97;;
14080;SDS011;7116;52.152;5.392;2024-01-16T06:33:22;6.67;;;2.93;;
14080;SDS011;7116;52.152;5.392;2024-01-16T06:35:50;5.50;;;2.97;;
14080;SDS011;7116;52.152;5.392;2024-01-16T06:38:16;4.50;;;3.00;;
14080;SDS011;7116;52.152;5.392;2024-01-16T06:40:41;5.30;;;3.13;;
14080;SDS011;7116;52.152;5.392;2024-01-16T06:43:16;3.80;;;2.63;;
14080;SDS011;7116;52.152;5.392;2024-01-16T06:45:43;4.57;;;2.57;;
14080;SDS011;7116;52.152;5.392;2024-01-16T06:48:11;4.75;;;2.88;;
14080;SDS011;7116;52.152;5.392;2024-01-16T06:50:36;6.40;;;3.73;;
14080;SDS011;7116;52.152;5.392;2024-01-16T06:53:04;6.97;;;2.50;;
14080;SDS011;7116;52.152;5.392;2024-01-16T07:01:46;7.80;;;3.65;;
14080;SDS011;7116;52.152;5.392;2024-01-16T07:04:31;6.43;;;2.80;;
14080;SDS011;7116;52.152;5.392;2024-01-16T07:06:57;4.20;;;2.58;;
14080;SDS011;7116;52.152;5.392;2024-01-16T07:09:32;7.17;;;4.10;;
14080;SDS011;7116;52.152;5.392;2024-01-16T07:11:57;7.67;;;3.33;;
14080;SDS011;7116;52.152;5.392;2024-01-16T07:14:25;8.70;;;2.88;;
14080;SDS011;7116;52.152;5.392;2024-01-16T07:16:53;6.45;;;3.30;;
14080;SDS011;7116;52.152;5.392;2024-01-16T07:19:18;5.93;;;4.13;;
14080;SDS011;7116;52.152;5.392;2024-01-16T07:21:43;10.30;;;4.17;;
14080;SDS011;7116;52.152;5.392;2024-01-16T07:24:09;8.73;;;4.55;;
14080;SDS011;7116;52.152;5.392;2024-01-16T07:26:35;9.10;;;3.63;;
14080;SDS011;7116;52.152;5.392;2024-01-16T07:29:00;8.10;;;4.93;;
14080;SDS011;7116;52.152;5.392;2024-01-16T07:31:25;8.27;;;4.10;;
14080;SDS011;7116;52.152;5.392;2024-01-16T07:33:50;8.17;;;5.83;;
14080;SDS011;7116;52.152;5.392;2024-01-16T07:36:16;8.37;;;5.13;;
14080;SDS011;7116;52.152;5.392;2024-01-16T07:38:41;8.50;;;5.07;;
14080;SDS011;7116;52.152;5.392;2024-01-16T07:41:06;8.77;;;4.90;;
14080;SDS011;7116;52.152;5.392;2024-01-16T07:43:32;7.53;;;4.90;;
14080;SDS011;7116;52.152;5.392;2024-01-16T07:45:57;7.35;;;4.43;;
14080;SDS011;7116;52.152;5.392;2024-01-16T07:48:24;10.23;;;4.78;;
14080;SDS011;7116;52.152;5.392;2024-01-16T07:50:50;10.37;;;4.90;;
14080;SDS011;7116;52.152;5.392;2024-01-16T07:53:15;15.60;;;5.87;;
14080;SDS011;7116;52.152;5.392;2024-01-16T07:55:41;9.63;;;6.03;;
14080;SDS011;7116;52.152;5.392;2024-01-16T07:58:06;10.48;;;6.00;;
14080;SDS011;7116;52.152;5.392;2024-01-16T08:00:31;8.77;;;4.97;;
14080;SDS011;7116;52.152;5.392;2024-01-16T08:02:57;10.47;;;5.60;;
14080;SDS011;7116;52.152;5.392;2024-01-16T08:05:22;9.23;;;6.67;;
14080;SDS011;7116;52.152;5.392;2024-01-16T08:07:50;9.17;;;5.93;;
14080;SDS011;7116;52.152;5.392;2024-01-16T08:10:18;10.93;;;5.53;;
14080;SDS011;7116;52.152;5.392;2024-01-16T08:12:43;10.67;;;5.70;;
14080;SDS011;7116;52.152;5.392;2024-01-16T08:15:08;10.30;;;5.90;;
14080;SDS011;7116;52.152;5.392;2024-01-16T08:17:33;11.93;;;5.47;;
14080;SDS011;7116;52.152;5.392;2024-01-16T08:19:59;9.40;;;6.00;;
14080;SDS011;7116;52.152;5.392;2024-01-16T08:22:26;13.63;;;6.93;;
14080;SDS011;7116;52.152;5.392;2024-01-16T08:24:59;11.97;;;7.00;;
14080;SDS011;7116;52.152;5.392;2024-01-16T08:27:24;14.67;;;7.17;;
14080;SDS011;7116;52.152;5.392;2024-01-16T08:29:49;8.43;;;6.20;;
14080;SDS011;7116;52.152;5.392;2024-01-16T08:32:15;9.53;;;6.57;;
14080;SDS011;7116;52.152;5.392;2024-01-16T08:34:40;10.90;;;6.53;;
14080;SDS011;7116;52.152;5.392;2024-01-16T08:37:05;11.77;;;6.07;;
14080;SDS011;7116;52.152;5.392;2024-01-16T08:39:33;9.27;;;5.83;;
14080;SDS011;7116;52.152;5.392;2024-01-16T08:41:59;8.45;;;5.95;;
14080;SDS011;7116;52.152;5.392;2024-01-16T08:44:24;9.87;;;6.07;;
14080;SDS011;7116;52.152;5.392;2024-01-16T08:46:49;13.27;;;6.03;;
14080;SDS011;7116;52.152;5.392;2024-01-16T08:49:15;11.90;;;5.30;;
14080;SDS011;7116;52.152;5.392;2024-01-16T08:51:40;10.67;;;6.30;;
14080;SDS011;7116;52.152;5.392;2024-01-16T08:54:06;13.70;;;6.93;;
14080;SDS011;7116;52.152;5.392;2024-01-16T08:56:31;12.57;;;5.97;;
14080;SDS011;7116;52.152;5.392;2024-01-16T08:58:56;11.30;;;6.50;;
14080;SDS011;7116;52.152;5.392;2024-01-16T09:01:22;10.53;;;6.00;;
14080;SDS011;7116;52.152;5.392;2024-01-16T09:03:47;13.03;;;6.47;;
14080;SDS011;7116;52.152;5.392;2024-01-16T09:06:12;8.67;;;4.93;;
14080;SDS011;7116;52.152;5.392;2024-01-16T09:08:37;9.70;;;5.63;;
14080;SDS011;7116;52.152;5.392;2024-01-16T09:11:03;10.17;;;5.23;;
14080;SDS011;7116;52.152;5.392;2024-01-16T09:13:28;10.30;;;5.10;;
14080;SDS011;7116;52.152;5.392;2024-01-16T09:15:53;9.07;;;5.57;;
14080;SDS011;7116;52.152;5.392;2024-01-16T09:18:18;8.07;;;5.20;;
14080;SDS011;7116;52.152;5.392;2024-01-16T09:20:46;10.57;;;5.13;;
14080;SDS011;7116;52.152;5.392;2024-01-16T09:23:12;12.23;;;5.05;;
14080;SDS011;7116;52.152;5.392;2024-01-16T09:25:37;8.90;;;5.00;;
14080;SDS011;7116;52.152;5.392;2024-01-16T09:28:03;8.67;;;5.00;;
14080;SDS011;7116;52.152;5.392;2024-01-16T09:30:31;6.80;;;4.28;;
14080;SDS011;7116;52.152;5.392;2024-01-16T09:32:59;8.85;;;5.35;;
14080;SDS011;7116;52.152;5.392;2024-01-16T09:35:24;5.67;;;3.57;;
14080;SDS011;7116;52.152;5.392;2024-01-16T09:37:49;9.47;;;4.27;;
14080;SDS011;7116;52.152;5.392;2024-01-16T09:40:18;17.25;;;4.28;;
14080;SDS011;7116;52.152;5.392;2024-01-16T09:42:43;8.70;;;3.70;;
14080;SDS011;7116;52.152;5.392;2024-01-16T09:45:08;12.83;;;4.60;;
14080;SDS011;7116;52.152;5.392;2024-01-16T09:47:34;7.40;;;3.80;;
14080;SDS011;7116;52.152;5.392;2024-01-16T09:49:59;8.13;;;4.17;;
14080;SDS011;7116;52.152;5.392;2024-01-16T09:52:25;7.20;;;3.63;;
14080;SDS011;7116;52.152;5.392;2024-01-16T09:54:50;8.47;;;4.13;;
14080;SDS011;7116;52.152;5.392;2024-01-16T09:57:15;10.13;;;3.43;;
14080;SDS011;7116;52.152;5.392;2024-01-16T09:59:42;7.40;;;3.92;;
14080;SDS011;7116;52.152;5.392;2024-01-16T10:02:08;9.30;;;3.53;;
14080;SDS011;7116;52.152;5.392;2024-01-16T10:04:37;6.93;;;3.40;;
14080;SDS011;7116;52.152;5.392;2024-01-16T10:07:03;6.00;;;3.67;;
14080;SDS011;7116;52.152;5.392;2024-01-16T10:09:31;9.15;;;4.40;;
14080;SDS011;7116;52.152;5.392;2024-01-16T10:11:56;9.80;;;3.67;;
14080;SDS011;7116;52.152;5.392;2024-01-16T10:14:22;7.87;;;4.07;;
14080;SDS011;7116;52.152;5.392;2024-01-16T10:19:22;12.40;;;4.60;;
14080;SDS011;7116;52.152;5.392;2024-01-16T10:21:47;8.68;;;3.63;;
14080;SDS011;7116;52.152;5.392;2024-01-16T10:24:13;9.70;;;4.43;;
14080;SDS011;7116;52.152;5.392;2024-01-16T10:26:38;9.20;;;3.63;;
14080;SDS011;7116;52.152;5.392;2024-01-16T10:29:09;13.30;;;6.00;;
14080;SDS011;7116;52.152;5.392;2024-01-16T10:31:34;8.20;;;3.70;;
14080;SDS011;7116;52.152;5.392;2024-01-16T10:33:59;11.00;;;4.63;;
14080;SDS011;7116;52.152;5.392;2024-01-16T10:36:27;9.13;;;4.20;;
14080;SDS011;7116;52.152;5.392;2024-01-16T10:38:52;10.90;;;5.68;;
14080;SDS011;7116;52.152;5.392;2024-01-16T10:41:27;9.17;;;4.37;;
14080;SDS011;7116;52.152;5.392;2024-01-16T10:44:05;12.03;;;4.53;;
14080;SDS011;7116;52.152;5.392;2024-01-16T10:46:34;8.05;;;4.20;;
14080;SDS011;7116;52.152;5.392;2024-01-16T10:49:00;7.32;;;4.82;;
14080;SDS011;7116;52.152;5.392;2024-01-16T10:51:26;10.27;;;4.43;;
14080;SDS011;7116;52.152;5.392;2024-01-16T10:53:58;9.77;;;4.80;;
14080;SDS011;7116;52.152;5.392;2024-01-16T10:56:24;9.33;;;3.63;;
14080;SDS011;7116;52.152;5.392;2024-01-16T10:58:55;9.35;;;4.97;;
14080;SDS011;7116;52.152;5.392;2024-01-16T11:01:22;11.52;;;6.30;;
14080;SDS011;7116;52.152;5.392;2024-01-16T11:03:49;11.95;;;6.45;;
14080;SDS011;7116;52.152;5.392;2024-01-16T11:06:15;7.65;;;5.03;;
14080;SDS011;7116;52.152;5.392;2024-01-16T11:08:44;11.77;;;6.73;;
14080;SDS011;7116;52.152;5.392;2024-01-16T11:11:12;9.98;;;4.63;;
14080;SDS011;7116;52.152;5.392;2024-01-16T11:13:46;9.18;;;5.97;;
14080;SDS011;7116;52.152;5.392;2024-01-16T11:16:17;11.77;;;4.43;;
14080;SDS011;7116;52.152;5.392;2024-01-16T11:18:46;6.50;;;4.40;;
14080;SDS011;7116;52.152;5.392;2024-01-16T11:21:14;8.00;;;4.10;;
14080;SDS011;7116;52.152;5.392;2024-01-16T11:23:44;7.97;;;4.20;;
14080;SDS011;7116;52.152;5.392;2024-01-16T11:28:52;10.70;;;5.28;;
14080;SDS011;7116;52.152;5.392;2024-01-16T11:31:33;11.85;;;3.60;;
14080;SDS011;7116;52.152;5.392;2024-01-16T11:34:00;8.70;;;4.18;;
14080;SDS011;7116;52.152;5.392;2024-01-16T11:39:10;6.45;;;3.78;;
14080;SDS011;7116;52.152;5.392;2024-01-16T11:41:48;6.20;;;2.80;;
14080;SDS011;7116;52.152;5.392;2024-01-16T11:47:04;4.45;;;2.30;;
14080;SDS011;7116;52.152;5.392;2024-01-16T11:49:30;8.23;;;3.08;;
14080;SDS011;7116;52.152;5.392;2024-01-16T11:51:59;4.53;;;2.30;;
14080;SDS011;7116;52.152;5.392;2024-01-16T11:54:44;5.20;;;2.78;;
14080;SDS011;7116;52.152;5.392;2024-01-16T12:02:00;6.97;;;2.53;;
14080;SDS011;7116;52.152;5.392;2024-01-16T12:04:29;7.03;;;3.30;;
14080;SDS011;7116;52.152;5.392;2024-01-16T12:06:58;8.33;;;3.87;;
14080;SDS011;7116;52.152;5.392;2024-01-16T12:09:25;8.77;;;4.18;;
14080;SDS011;7116;52.152;5.392;2024-01-16T12:11:57;8.93;;;3.80;;
14080;SDS011;7116;52.152;5.392;2024-01-16T12:14:23;7.82;;;3.70;;
14080;SDS011;7116;52.152;5.392;2024-01-16T12:16:51;11.30;;;3.77;;
14080;SDS011;7116;52.152;5.392;2024-01-16T12:19:17;5.97;;;2.90;;
14080;SDS011;7116;52.152;5.392;2024-01-16T12:21:43;8.47;;;4.20;;
14080;SDS011;7116;52.152;5.392;2024-01-16T12:24:09;6.57;;;3.83;;
14080;SDS011;7116;52.152;5.392;2024-01-16T12:26:35;5.70;;;3.20;;
14080;SDS011;7116;52.152;5.392;2024-01-16T12:29:02;8.50;;;4.78;;
14080;SDS011;7116;52.152;5.392;2024-01-16T12:31:27;7.50;;;3.38;;
14080;SDS011;7116;52.152;5.392;2024-01-16T12:34:03;9.83;;;4.53;;
14080;SDS011;7116;52.152;5.392;2024-01-16T12:42:39;6.32;;;2.88;;
14080;SDS011;7116;52.152;5.392;2024-01-16T12:45:18;6.20;;;2.92;;
14080;SDS011;7116;52.152;5.392;2024-01-16T13:03:30;7.50;;;3.70;;
14080;SDS011;7116;52.152;5.392;2024-01-16T13:09:12;8.85;;;4.47;;
14080;SDS011;7116;52.152;5.392;2024-01-16T13:14:38;7.53;;;3.72;;
14080;SDS011;7116;52.152;5.392;2024-01-16T13:17:04;8.33;;;3.47;;
14080;SDS011;7116;52.152;5.392;2024-01-16T13:19:31;10.70;;;3.90;;
14080;SDS011;7116;52.152;5.392;2024-01-16T13:21:58;9.18;;;3.83;;
14080;SDS011;7116;52.152;5.392;2024-01-16T13:24:31;7.35;;;3.97;;
14080;SDS011;7116;52.152;5.392;2024-01-16T13:26:56;11.60;;;4.17;;
14080;SDS011;7116;52.152;5.392;2024-01-16T13:29:21;11.73;;;3.40;;
14080;SDS011;7116;52.152;5.392;2024-01-16T13:31:46;8.40;;;4.00;;
14080;SDS011;7116;52.152;5.392;2024-01-16T13:34:19;10.25;;;3.88;;
14080;SDS011;7116;52.152;5.392;2024-01-16T13:36:46;9.07;;;3.30;;
14080;SDS011;7116;52.152;5.392;2024-01-16T13:39:13;7.85;;;4.20;;
14080;SDS011;7116;52.152;5.392;2024-01-16T13:41:39;9.43;;;3.83;;
14080;SDS011;7116;52.152;5.392;2024-01-16T13:44:04;13.07;;;5.40;;
14080;SDS011;7116;52.152;5.392;2024-01-16T13:46:30;7.07;;;3.77;;
14080;SDS011;7116;52.152;5.392;2024-01-16T13:48:55;9.33;;;4.90;;
14080;SDS011;7116;52.152;5.392;2024-01-16T13:51:20;9.47;;;3.80;;
14080;SDS011;7116;52.152;5.392;2024-01-16T13:53:53;9.13;;;4.55;;
14080;SDS011;7116;52.152;5.392;2024-01-16T13:56:18;6.87;;;3.87;;
14080;SDS011;7116;52.152;5.392;2024-01-16T13:58:43;10.93;;;4.67;;
14080;SDS011;7116;52.152;5.392;2024-01-16T14:01:09;10.83;;;4.03;;
14080;SDS011;7116;52.152;5.392;2024-01-16T14:03:34;6.70;;;3.93;;
14080;SDS011;7116;52.152;5.392;2024-01-16T14:05:59;9.80;;;4.27;;
14080;SDS011;7116;52.152;5.392;2024-01-16T14:08:25;15.35;;;5.57;;
14080;SDS011;7116;52.152;5.392;2024-01-16T14:10:50;12.00;;;5.03;;
14080;SDS011;7116;52.152;5.392;2024-01-16T14:13:33;9.53;;;4.40;;
14080;SDS011;7116;52.152;5.392;2024-01-16T14:15:59;13.43;;;5.03;;
14080;SDS011;7116;52.152;5.392;2024-01-16T14:18:24;10.17;;;4.63;;
14080;SDS011;7116;52.152;5.392;2024-01-16T14:20:49;11.87;;;5.27;;
14080;SDS011;7116;52.152;5.392;2024-01-16T14:23:17;9.65;;;3.95;;
14080;SDS011;7116;52.152;5.392;2024-01-16T14:25:42;13.83;;;5.30;;
14080;SDS011;7116;52.152;5.392;2024-01-16T14:28:07;12.07;;;5.43;;
14080;SDS011;7116;52.152;5.392;2024-01-16T14:30:34;8.38;;;3.83;;
14080;SDS011;7116;52.152;5.392;2024-01-16T14:33:06;11.60;;;4.57;;
14080;SDS011;7116;52.152;5.392;2024-01-16T14:35:35;13.75;;;5.05;;
14080;SDS011;7116;52.152;5.392;2024-01-16T14:38:04;10.23;;;4.68;;
14080;SDS011;7116;52.152;5.392;2024-01-16T14:40:31;10.07;;;4.78;;
14080;SDS011;7116;52.152;5.392;2024-01-16T14:42:58;10.55;;;4.22;;
14080;SDS011;7116;52.152;5.392;2024-01-16T14:45:24;11.83;;;5.60;;
14080;SDS011;7116;52.152;5.392;2024-01-16T14:47:50;11.80;;;7.18;;
14080;SDS011;7116;52.152;5.392;2024-01-16T14:50:16;9.52;;;5.80;;
14080;SDS011;7116;52.152;5.392;2024-01-16T14:52:43;8.57;;;5.10;;
14080;SDS011;7116;52.152;5.392;2024-01-16T14:55:08;6.93;;;4.00;;
14080;SDS011;7116;52.152;5.392;2024-01-16T14:57:34;9.70;;;4.63;;
14080;SDS011;7116;52.152;5.392;2024-01-16T15:00:11;11.48;;;4.40;;
14080;SDS011;7116;52.152;5.392;2024-01-16T15:02:44;11.40;;;3.58;;
14080;SDS011;7116;52.152;5.392;2024-01-16T15:05:09;7.17;;;4.03;;
14080;SDS011;7116;52.152;5.392;2024-01-16T15:07:37;10.05;;;4.88;;
14080;SDS011;7116;52.152;5.392;2024-01-16T15:10:05;8.27;;;3.50;;
14080;SDS011;7116;52.152;5.392;2024-01-16T15:12:31;8.10;;;3.88;;
14080;SDS011;7116;52.152;5.392;2024-01-16T15:14:56;7.50;;;4.15;;
14080;SDS011;7116;52.152;5.392;2024-01-16T15:17:21;7.57;;;3.47;;
14080;SDS011;7116;52.152;5.392;2024-01-16T15:19:46;8.30;;;3.43;;
14080;SDS011;7116;52.152;5.392;2024-01-16T15:22:14;6.30;;;4.33;;
14080;SDS011;7116;52.152;5.392;2024-01-16T15:24:40;7.50;;;3.80;;
14080;SDS011;7116;52.152;5.392;2024-01-16T15:27:05;8.77;;;5.00;;
14080;SDS011;7116;52.152;5.392;2024-01-16T15:29:31;7.90;;;4.35;;
14080;SDS011;7116;52.152;5.392;2024-01-16T15:31:56;9.20;;;4.37;;
14080;SDS011;7116;52.152;5.392;2024-01-16T15:34:22;9.50;;;4.50;;
14080;SDS011;7116;52.152;5.392;2024-01-16T15:36:47;10.20;;;5.15;;
14080;SDS011;7116;52.152;5.392;2024-01-16T15:39:13;7.37;;;5.17;;
14080;SDS011;7116;52.152;5.392;2024-01-16T15:41:42;13.25;;;5.88;;
14080;SDS011;7116;52.152;5.392;2024-01-16T15:44:08;14.02;;;5.95;;